createdAt,value
2022-10-18T00:01:16.801Z,99560.19
2022-10-18T00:04:03.669Z,99559.59
2022-10-18T00:06:50.531Z,99559.06
2022-10-18T00:09:39.588Z,99557.28
2022-10-18T00:12:26.470Z,99564.91
2022-10-18T00:15:13.285Z,99563.06
2022-10-18T00:18:00.164Z,99577.00
2022-10-18T00:21:06.401Z,99573.91
2022-10-18T00:23:55.752Z,99563.72
2022-10-18T00:26:42.609Z,99565.19
2022-10-18T00:29:29.772Z,99564.16
2022-10-18T00:32:16.507Z,99572.09
2022-10-18T00:35:04.003Z,99565.34
2022-10-18T00:37:50.754Z,99566.16
2022-10-18T00:40:37.521Z,99570.66
2022-10-18T00:43:24.457Z,99563.22
2022-10-18T00:46:13.623Z,99560.91
2022-10-18T00:49:08.305Z,99558.19
2022-10-18T00:52:02.770Z,99561.22
2022-10-18T00:54:52.372Z,99561.78
2022-10-18T00:57:42.183Z,99558.91
2022-10-18T01:00:28.957Z,99555.38
2022-10-18T01:03:15.817Z,99563.69
2022-10-18T01:06:02.666Z,99564.50
2022-10-18T01:09:05.293Z,99562.78
2022-10-18T01:12:03.858Z,99548.69
2022-10-18T01:15:11.291Z,99551.97
2022-10-18T01:18:10.853Z,99539.81
2022-10-18T01:21:00.517Z,99542.94
2022-10-18T01:23:53.444Z,99538.91
2022-10-18T01:26:40.190Z,99537.75
2022-10-18T01:30:02.987Z,99532.63
2022-10-18T01:32:58.193Z,99540.97
2022-10-18T01:35:52.240Z,99536.47
2022-10-18T01:38:40.749Z,99538.03
2022-10-18T01:41:29.117Z,99544.97
2022-10-18T01:44:21.947Z,99535.13
2022-10-18T01:47:15.142Z,99535.13
2022-10-18T01:50:04.980Z,99536.22
2022-10-18T01:52:52.334Z,99544.38
2022-10-18T01:55:45.948Z,99533.56
2022-10-18T01:58:48.584Z,99528.66
2022-10-18T02:01:53.805Z,99538.84
2022-10-18T02:05:02.935Z,99524.44
2022-10-18T02:08:23.589Z,99523.16
2022-10-18T02:11:16.798Z,99540.28
2022-10-18T02:14:09.353Z,99530.53
2022-10-18T02:17:00.601Z,99529.25
2022-10-18T02:19:52.446Z,99540.28
2022-10-18T02:22:42.469Z,99537.00
2022-10-18T02:25:31.818Z,99532.25
2022-10-18T02:28:18.925Z,99528.38
2022-10-18T02:31:14.748Z,99529.91
2022-10-18T02:33:52.783Z,99539.78
2022-10-18T02:36:47.533Z,99534.25
2022-10-18T02:39:19.795Z,99537.88
2022-10-18T02:41:46.971Z,99539.19
2022-10-18T02:44:13.463Z,99535.53
2022-10-18T02:46:40.693Z,99544.41
2022-10-18T02:49:07.228Z,99542.44
2022-10-18T02:51:33.708Z,99542.03
2022-10-18T02:54:00.169Z,99537.13
2022-10-18T02:56:26.613Z,99528.72
2022-10-18T02:58:53.045Z,99521.91
2022-10-18T03:01:19.568Z,99526.28
2022-10-18T03:03:46.183Z,99525.31
2022-10-18T03:06:12.620Z,99532.44
2022-10-18T03:08:39.216Z,99537.84
2022-10-18T03:11:05.892Z,99522.00
2022-10-18T03:13:34.122Z,99526.13
2022-10-18T03:16:01.210Z,99522.84
2022-10-18T03:18:27.966Z,99523.56
2022-10-18T03:20:54.421Z,99506.53
2022-10-18T03:23:21.025Z,99499.47
2022-10-18T03:25:49.656Z,99499.69
2022-10-18T03:28:16.117Z,99498.50
2022-10-18T03:30:42.604Z,99501.78
2022-10-18T03:33:11.157Z,99494.91
2022-10-18T03:35:37.643Z,99499.72
2022-10-18T03:38:04.165Z,99493.06
2022-10-18T03:43:02.145Z,99492.06
2022-10-18T03:45:31.213Z,99497.91
2022-10-18T03:48:00.445Z,99490.41
2022-10-18T03:50:27.205Z,99487.44
2022-10-18T03:52:55.428Z,99484.22
2022-10-18T03:55:21.997Z,99479.56
2022-10-18T03:57:48.472Z,99482.19
2022-10-18T04:00:14.968Z,99487.25
2022-10-18T04:02:41.885Z,99490.72
2022-10-18T04:05:09.996Z,99487.50
2022-10-18T04:10:08.435Z,99489.28
2022-10-18T04:12:37.242Z,99487.13
2022-10-18T04:15:04.069Z,99485.34
2022-10-18T04:17:30.743Z,99487.16
2022-10-18T04:19:59.857Z,99484.06
2022-10-18T04:22:26.359Z,99485.09
2022-10-18T04:24:53.345Z,99482.38
2022-10-18T04:27:19.912Z,99475.59
2022-10-18T04:29:46.358Z,99478.78
2022-10-18T04:32:12.857Z,99479.50
2022-10-18T04:34:39.347Z,99472.50
2022-10-18T04:37:05.811Z,99477.03
2022-10-18T04:39:32.272Z,99476.09
2022-10-18T04:41:58.901Z,99480.53
2022-10-18T04:44:25.438Z,99487.19
2022-10-18T04:46:51.939Z,99485.81
2022-10-18T04:49:18.526Z,99488.31
2022-10-18T04:51:45.040Z,99475.50
2022-10-18T04:54:11.490Z,99478.81
2022-10-18T04:56:38.008Z,99475.81
2022-10-18T04:59:04.467Z,99476.03
2022-10-18T05:01:31.045Z,99473.41
2022-10-18T05:03:57.549Z,99476.47
2022-10-18T05:06:24.045Z,99473.69
2022-10-18T05:08:50.520Z,99476.66
2022-10-18T05:11:17.042Z,99466.25
2022-10-18T05:13:45.983Z,99474.34
2022-10-18T05:16:15.975Z,99463.25
2022-10-18T05:18:43.191Z,99468.56
2022-10-18T05:21:09.806Z,99460.91
2022-10-18T05:23:36.257Z,99459.75
2022-10-18T05:26:04.089Z,99462.31
2022-10-18T05:28:39.297Z,99454.97
2022-10-18T05:31:08.899Z,99453.97
2022-10-18T05:33:35.871Z,99459.94
2022-10-18T05:36:04.942Z,99450.78
2022-10-18T05:38:31.583Z,99462.47
2022-10-18T05:41:03.671Z,99466.81
2022-10-18T05:43:30.126Z,99469.63
2022-10-18T05:45:56.787Z,99470.78
2022-10-18T05:48:26.487Z,99472.25
2022-10-18T05:50:53.152Z,99466.56
2022-10-18T05:53:35.795Z,99472.66
2022-10-18T05:56:03.073Z,99471.84
2022-10-18T05:58:29.613Z,99469.72
2022-10-18T06:00:59.786Z,99472.44
2022-10-18T06:03:27.471Z,99469.25
2022-10-18T06:06:01.750Z,99466.22
2022-10-18T06:08:33.145Z,99469.06
2022-10-18T06:10:59.984Z,99474.16
2022-10-18T06:13:27.167Z,99461.59
2022-10-18T06:15:57.768Z,99475.69
2022-10-18T06:18:24.597Z,99479.09
2022-10-18T06:20:58.053Z,99476.78
2022-10-18T06:23:25.045Z,99487.72
2022-10-18T06:25:54.420Z,99489.22
2022-10-18T06:28:20.859Z,99485.84
2022-10-18T06:30:49.399Z,99494.56
2022-10-18T06:33:15.903Z,99493.66
2022-10-18T06:35:42.401Z,99496.78
2022-10-18T06:38:08.853Z,99484.16
2022-10-18T06:40:37.958Z,99491.25
2022-10-18T06:43:20.146Z,99496.81
2022-10-18T06:45:47.641Z,99497.03
2022-10-18T06:51:02.812Z,99500.06
2022-10-18T06:53:33.053Z,99501.00
2022-10-18T06:56:06.734Z,99491.78
2022-10-18T06:58:33.834Z,99489.59
2022-10-18T07:01:08.799Z,99491.00
2022-10-18T07:03:38.780Z,99490.00
2022-10-18T07:06:07.348Z,99488.66
2022-10-18T07:08:33.857Z,99487.81
2022-10-18T07:11:00.768Z,99489.91
2022-10-18T07:13:33.020Z,99490.38
2022-10-18T07:16:03.192Z,99485.69
2022-10-18T07:18:29.696Z,99492.63
2022-10-18T07:20:56.211Z,99493.78
2022-10-18T07:23:24.824Z,99498.28
2022-10-18T07:25:51.278Z,99501.88
2022-10-18T07:28:17.973Z,99500.34
2022-10-18T07:30:44.514Z,99505.56
2022-10-18T07:33:10.989Z,99501.22
2022-10-18T07:35:39.746Z,99513.94
2022-10-18T07:38:08.720Z,99514.94
2022-10-18T07:40:37.538Z,99514.50
2022-10-18T07:43:11.406Z,99508.81
2022-10-18T07:45:38.611Z,99518.88
2022-10-18T07:48:05.310Z,99517.88
2022-10-18T07:50:33.973Z,99531.09
2022-10-18T07:53:00.422Z,99524.41
2022-10-18T07:55:26.855Z,99535.38
2022-10-18T07:57:53.368Z,99519.22
2022-10-18T08:00:19.946Z,99532.78
2022-10-18T08:02:46.380Z,99536.44
2022-10-18T08:05:15.061Z,99538.28
2022-10-18T08:07:43.989Z,99535.22
2022-10-18T08:10:14.636Z,99537.59
2022-10-18T08:12:43.222Z,99538.34
2022-10-18T08:15:10.012Z,99554.88
2022-10-18T08:17:36.530Z,99564.59
2022-10-18T08:20:12.035Z,99574.56
2022-10-18T08:22:45.604Z,99634.78
2022-10-18T08:25:12.030Z,99707.75
2022-10-18T08:27:38.475Z,99719.06
2022-10-18T08:30:05.497Z,99765.09
2022-10-18T08:32:32.199Z,99887.47
2022-10-18T08:34:58.790Z,99955.66
2022-10-18T08:37:25.241Z,100031.63
2022-10-18T08:39:51.742Z,100084.53
2022-10-18T08:42:43.952Z,100244.13
2022-10-18T08:45:30.016Z,100248.34
2022-10-18T08:48:03.512Z,100246.56
2022-10-18T08:50:36.824Z,100093.22
2022-10-18T08:53:15.012Z,99710.13
2022-10-18T08:55:44.948Z,99997.75
2022-10-18T08:58:22.423Z,99747.81
2022-10-18T09:01:10.114Z,100131.44
2022-10-18T09:03:45.812Z,100177.84
2022-10-18T09:06:23.467Z,100072.75
2022-10-18T09:09:03.792Z,100081.69
2022-10-18T09:12:01.917Z,100242.09
2022-10-18T09:15:04.065Z,99191.00
2022-10-18T09:18:17.758Z,98348.25
2022-10-18T09:21:05.263Z,98550.69
2022-10-18T09:23:48.241Z,98865.00
2022-10-18T09:26:17.233Z,100175.31
2022-10-18T09:29:05.239Z,100244.25
2022-10-18T09:32:04.682Z,100216.84
2022-10-18T09:34:31.125Z,100198.78
2022-10-18T09:36:58.779Z,100225.28
2022-10-18T09:39:37.513Z,100244.41
2022-10-18T09:42:26.855Z,100234.31
2022-10-18T09:45:03.714Z,100246.31
2022-10-18T09:47:40.360Z,100212.19
2022-10-18T09:50:38.224Z,100212.84
2022-10-18T09:53:36.836Z,100199.81
2022-10-18T09:56:11.190Z,100165.75
2022-10-18T09:58:49.334Z,100216.19
2022-10-18T10:01:21.019Z,100166.34
2022-10-18T10:03:47.462Z,100014.75
2022-10-18T10:06:16.856Z,99913.38
2022-10-18T10:08:48.701Z,99854.66
2022-10-18T10:11:35.246Z,99809.91
2022-10-18T10:14:12.251Z,99756.34
2022-10-18T10:16:52.357Z,99731.50
2022-10-18T10:19:39.553Z,99727.47
2022-10-18T10:22:16.456Z,99726.88
2022-10-18T10:24:53.626Z,99709.03
2022-10-18T10:27:43.399Z,99714.34
2022-10-18T10:30:26.900Z,99722.66
2022-10-18T10:32:58.389Z,99719.59
2022-10-18T10:38:37.009Z,99717.31
2022-10-18T10:41:21.383Z,99731.56
2022-10-18T10:43:49.582Z,99729.19
2022-10-18T10:46:20.461Z,99722.38
2022-10-18T10:48:49.253Z,99713.03
2022-10-18T10:51:28.827Z,99700.16
2022-10-18T10:54:04.149Z,99669.41
2022-10-18T10:56:35.760Z,99657.78
2022-10-18T10:59:24.596Z,99657.63
2022-10-18T11:02:25.985Z,99639.03
2022-10-18T11:04:54.680Z,99633.81
2022-10-18T11:07:43.171Z,99622.34
2022-10-18T11:10:12.248Z,99609.84
2022-10-18T11:12:45.200Z,99620.78
2022-10-18T11:15:11.963Z,99626.22
2022-10-18T11:18:17.216Z,99622.66
2022-10-18T11:20:47.320Z,99599.19
2022-10-18T11:23:15.356Z,99589.69
2022-10-18T11:25:50.649Z,99569.06
2022-10-18T11:29:10.778Z,99581.44
2022-10-18T11:31:58.175Z,99576.72
2022-10-18T11:34:33.696Z,99577.22
2022-10-18T11:37:27.095Z,99579.09
2022-10-18T11:40:03.384Z,99574.00
2022-10-18T11:43:06.154Z,99577.56
2022-10-18T11:45:51.414Z,99560.16
2022-10-18T11:48:23.907Z,99574.34
2022-10-18T11:51:12.473Z,99566.94
2022-10-18T11:53:41.236Z,99575.69
2022-10-18T11:56:30.689Z,99563.72
2022-10-18T11:59:29.161Z,99574.03
2022-10-18T12:02:14.471Z,99572.84
2022-10-18T12:05:11.887Z,99586.16
2022-10-18T12:07:47.514Z,99568.28
2022-10-18T12:10:31.464Z,99565.06
2022-10-18T12:13:14.097Z,99566.28
2022-10-18T12:15:41.229Z,99554.63
2022-10-18T12:18:16.229Z,99553.91
2022-10-18T12:20:48.626Z,99562.16
2022-10-18T12:23:21.880Z,99556.56
2022-10-18T12:25:59.014Z,99561.13
2022-10-18T12:28:47.149Z,99573.34
2022-10-18T12:31:19.445Z,99558.97
2022-10-18T12:34:00.433Z,99559.16
2022-10-18T12:36:44.351Z,99549.53
2022-10-18T12:39:43.808Z,99560.84
2022-10-18T12:42:31.976Z,99558.47
2022-10-18T12:45:13.694Z,99561.69
2022-10-18T12:47:40.612Z,99553.25
2022-10-18T12:50:43.675Z,99556.47
2022-10-18T12:53:10.094Z,99543.97
2022-10-18T12:55:41.152Z,99541.75
2022-10-18T12:58:13.346Z,99539.41
2022-10-18T13:00:41.557Z,99537.53
2022-10-18T13:03:10.702Z,99540.59
2022-10-18T13:05:56.268Z,99535.50
2022-10-18T13:08:28.993Z,99534.63
2022-10-18T13:11:01.250Z,99536.63
2022-10-18T13:13:50.590Z,99542.72
2022-10-18T13:16:31.002Z,99544.91
2022-10-18T13:19:18.576Z,99548.47
2022-10-18T13:22:03.730Z,99531.13
2022-10-18T13:24:36.953Z,99533.81
2022-10-18T13:27:38.283Z,99537.56
2022-10-18T13:30:38.846Z,99536.69
2022-10-18T13:33:17.603Z,99544.13
2022-10-18T13:36:26.291Z,99541.75
2022-10-18T13:39:19.185Z,99538.53
2022-10-18T13:41:47.928Z,99536.81
2022-10-18T13:44:31.816Z,99535.81
2022-10-18T13:46:58.211Z,99542.94
2022-10-18T13:49:36.814Z,99552.41
2022-10-18T13:52:15.418Z,99552.56
2022-10-18T13:54:47.986Z,99563.88
2022-10-18T13:57:33.013Z,99552.88
2022-10-18T14:00:21.289Z,99565.22
2022-10-18T14:03:12.853Z,99564.38
2022-10-18T14:05:48.484Z,99549.31
2022-10-18T14:08:24.020Z,99553.41
2022-10-18T14:11:02.751Z,99552.88
2022-10-18T14:14:17.841Z,99556.97
2022-10-18T14:16:56.547Z,99543.28
2022-10-18T14:19:34.451Z,99560.16
2022-10-18T14:22:29.185Z,99567.06
2022-10-18T14:24:57.910Z,99556.28
2022-10-18T14:27:32.468Z,99560.34
2022-10-18T14:30:19.897Z,99548.34
2022-10-18T14:32:49.125Z,99555.94
2022-10-18T14:35:32.873Z,99559.16
2022-10-18T14:38:00.869Z,99564.50
2022-10-18T14:40:39.835Z,99565.53
2022-10-18T14:43:12.473Z,99563.38
2022-10-18T14:45:41.997Z,99553.25
2022-10-18T14:48:14.538Z,99549.53
2022-10-18T14:50:43.850Z,99550.69
2022-10-18T14:53:17.387Z,99563.72
2022-10-18T14:55:52.134Z,99551.75
2022-10-18T14:58:19.069Z,99550.19
2022-10-18T15:00:48.558Z,99544.97
2022-10-18T15:03:18.607Z,99539.91
2022-10-18T15:06:00.111Z,99546.31
2022-10-18T15:08:32.606Z,99543.75
2022-10-18T15:10:59.205Z,99543.53
2022-10-18T15:13:28.037Z,99550.41
2022-10-18T15:15:55.772Z,99541.84
2022-10-18T15:18:27.045Z,99549.28
2022-10-18T15:21:23.482Z,99550.47
2022-10-18T15:23:52.828Z,99546.06
2022-10-18T15:26:26.676Z,99546.41
2022-10-18T15:28:56.399Z,99545.41
2022-10-18T15:31:34.242Z,99549.44
2022-10-18T15:34:26.553Z,99539.56
2022-10-18T15:36:56.092Z,99536.88
2022-10-18T15:39:25.127Z,99529.06
2022-10-18T15:41:53.685Z,99533.28
2022-10-18T15:44:53.971Z,99541.25
2022-10-18T15:47:21.730Z,99542.91
2022-10-18T15:50:31.106Z,99555.88
2022-10-18T15:53:20.674Z,99546.25
2022-10-18T15:55:52.125Z,99543.69
2022-10-18T15:58:27.437Z,99539.31
2022-10-18T16:00:58.782Z,99547.09
2022-10-18T16:03:28.682Z,99551.78
2022-10-18T16:06:03.073Z,99556.03
2022-10-18T16:08:37.021Z,99557.41
2022-10-18T16:11:03.470Z,99556.72
2022-10-18T16:13:32.205Z,99554.84
2022-10-18T16:15:59.927Z,99560.38
2022-10-18T16:18:27.058Z,99552.66
2022-10-18T16:20:53.512Z,99559.66
2022-10-18T16:23:23.476Z,99569.78
2022-10-18T16:25:52.803Z,99571.94
2022-10-18T16:28:22.685Z,99571.25
2022-10-18T16:31:03.721Z,99573.59
2022-10-18T16:33:30.874Z,99567.34
2022-10-18T16:35:58.076Z,99568.03
2022-10-18T16:38:36.306Z,99578.66
2022-10-18T16:41:07.538Z,99574.22
2022-10-18T16:43:36.962Z,99576.53
2022-10-18T16:46:09.461Z,99576.88
2022-10-18T16:48:35.975Z,99584.53
2022-10-18T16:51:02.468Z,99586.59
2022-10-18T16:53:29.014Z,99581.91
2022-10-18T16:56:00.791Z,99584.22
2022-10-18T16:58:30.870Z,99597.94
2022-10-18T17:01:01.895Z,99596.56
2022-10-18T17:03:52.191Z,99598.28
2022-10-18T17:06:37.574Z,99585.22
2022-10-18T17:09:26.402Z,99592.94
2022-10-18T17:12:13.180Z,99604.28
2022-10-18T17:15:00.119Z,99604.44
2022-10-18T17:17:49.762Z,99604.63
2022-10-18T17:20:36.605Z,99610.53
2022-10-18T17:23:26.140Z,99616.25
2022-10-18T17:26:33.742Z,99608.09
2022-10-18T17:29:20.537Z,99609.88
2022-10-18T17:32:07.978Z,99608.19
2022-10-18T17:34:54.845Z,99606.19
2022-10-18T17:37:45.318Z,99616.19
2022-10-18T17:40:33.677Z,99610.81
2022-10-18T17:43:22.848Z,99616.56
2022-10-18T17:46:12.209Z,99613.28
2022-10-18T17:48:59.037Z,99614.28
2022-10-18T17:51:46.393Z,99627.59
2022-10-18T17:54:33.164Z,99622.72
2022-10-18T17:57:20.020Z,99618.88
2022-10-18T18:00:10.479Z,99613.03
2022-10-18T18:03:01.117Z,99618.72
2022-10-18T18:05:48.014Z,99618.03
2022-10-18T18:08:38.080Z,99614.50
2022-10-18T18:11:29.094Z,99553.28
2022-10-18T18:14:19.763Z,99612.72
2022-10-18T18:17:24.658Z,99556.28
2022-10-18T18:20:20.965Z,99618.34
2022-10-18T18:23:07.744Z,99620.19
2022-10-18T18:25:56.618Z,99623.78
2022-10-18T18:28:43.657Z,99616.13
2022-10-18T18:31:34.398Z,99620.03
2022-10-18T18:34:25.633Z,99621.81
2022-10-18T18:37:14.800Z,99619.88
2022-10-18T18:40:01.618Z,99621.81
2022-10-18T18:43:01.806Z,99617.19
2022-10-18T18:45:55.150Z,99619.47
2022-10-18T18:48:42.241Z,99617.78
2022-10-18T18:51:33.113Z,99627.19
2022-10-18T18:54:21.939Z,99613.91
2022-10-18T18:57:08.789Z,99622.38
2022-10-18T18:59:55.619Z,99622.13
2022-10-18T19:02:42.425Z,99618.97
2022-10-18T19:05:29.287Z,99623.00
2022-10-18T19:08:16.054Z,99614.66
2022-10-18T19:11:06.854Z,99610.25
2022-10-18T19:13:55.904Z,99615.22
2022-10-18T19:16:49.918Z,99617.47
2022-10-18T19:19:39.352Z,99620.16
2022-10-18T19:22:26.136Z,99615.25
2022-10-18T19:25:13.202Z,99615.88
2022-10-18T19:28:02.212Z,99617.00
2022-10-18T19:30:50.592Z,99612.88
2022-10-18T19:33:48.200Z,99604.47
2022-10-18T19:36:45.412Z,99613.94
2022-10-18T19:39:34.397Z,99609.44
2022-10-18T19:42:24.245Z,99602.63
2022-10-18T19:45:13.218Z,99615.22
2022-10-18T19:48:00.050Z,99610.44
2022-10-18T19:50:50.708Z,99613.13
2022-10-18T19:53:38.292Z,99626.41
2022-10-18T19:56:26.761Z,99620.47
2022-10-18T19:59:15.913Z,99622.16
2022-10-18T20:02:04.587Z,99624.72
2022-10-18T20:04:51.462Z,99624.16
2022-10-18T20:07:41.090Z,99626.41
2022-10-18T20:10:27.881Z,99624.16
2022-10-18T20:13:14.977Z,99621.88
2022-10-18T20:16:02.704Z,99626.53
2022-10-18T20:18:54.157Z,99619.47
2022-10-18T20:21:40.968Z,99624.63
2022-10-18T20:24:27.832Z,99608.97
2022-10-18T20:27:14.607Z,99621.28
2022-10-18T20:30:01.424Z,99612.25
2022-10-18T20:32:48.197Z,99623.66
2022-10-18T20:35:34.979Z,99612.91
2022-10-18T20:38:21.876Z,99616.56
2022-10-18T20:41:11.392Z,99621.56
2022-10-18T20:44:00.756Z,99618.00
2022-10-18T20:46:47.553Z,99632.28
2022-10-18T20:49:34.396Z,99616.59
2022-10-18T20:52:21.217Z,99627.34
2022-10-18T20:55:08.138Z,99636.09
2022-10-18T20:57:54.915Z,99632.41
2022-10-18T21:00:41.741Z,99625.34
2022-10-18T21:03:28.499Z,99627.31
2022-10-18T21:06:17.596Z,99635.22
2022-10-18T21:09:07.532Z,99633.84
2022-10-18T21:11:54.532Z,99638.63
2022-10-18T21:14:43.409Z,99638.47
2022-10-18T21:17:30.185Z,99644.97
2022-10-18T21:20:17.412Z,99635.34
2022-10-18T21:23:04.356Z,99628.00
2022-10-18T21:25:51.128Z,99639.47
2022-10-18T21:28:37.946Z,99642.03
2022-10-18T21:31:27.733Z,99630.97
2022-10-18T21:34:17.138Z,99636.53
2022-10-18T21:37:03.933Z,99635.28
2022-10-18T21:39:50.678Z,99631.16
2022-10-18T21:42:37.436Z,99641.16
2022-10-18T21:45:24.193Z,99635.59
2022-10-18T21:48:10.989Z,99631.53
2022-10-18T21:51:03.344Z,99629.88
2022-10-18T21:53:54.349Z,99621.19
2022-10-18T21:56:41.321Z,99621.69
2022-10-18T21:59:28.123Z,99624.50
2022-10-18T22:02:15.119Z,99619.09
2022-10-18T22:05:08.215Z,99618.56
2022-10-18T22:07:58.000Z,99624.84
2022-10-18T22:10:44.781Z,99617.41
2022-10-18T22:13:32.073Z,99618.41
2022-10-18T22:16:18.887Z,99619.09
2022-10-18T22:19:07.078Z,99616.28
2022-10-18T22:21:53.925Z,99611.75
2022-10-18T22:24:40.724Z,99614.56
2022-10-18T22:27:30.626Z,99610.31
2022-10-18T22:30:17.662Z,99603.75
2022-10-18T22:33:04.859Z,99602.31
2022-10-18T22:35:51.721Z,99605.72
2022-10-18T22:38:39.398Z,99608.28
2022-10-18T22:41:26.337Z,99602.03
2022-10-18T22:44:14.355Z,99595.16
2022-10-18T22:47:03.566Z,99595.34
2022-10-18T22:49:50.327Z,99599.41
2022-10-18T22:52:37.079Z,99589.31
2022-10-18T22:55:24.018Z,99589.91
2022-10-18T22:58:10.796Z,99585.00
2022-10-18T23:01:03.169Z,99596.25
2022-10-18T23:03:54.295Z,99579.75
2022-10-18T23:06:41.351Z,99584.97
2022-10-18T23:09:28.164Z,99588.06
2022-10-18T23:12:14.975Z,99584.22
2022-10-18T23:15:01.756Z,99571.75
2022-10-18T23:17:49.952Z,99574.63
2022-10-18T23:20:36.911Z,99570.50
2022-10-18T23:23:23.652Z,99573.38
2022-10-18T23:26:16.166Z,99580.28
2022-10-18T23:29:03.481Z,99578.97
2022-10-18T23:31:50.740Z,99580.56
2022-10-18T23:34:37.509Z,99580.38
2022-10-18T23:37:24.416Z,99594.19
2022-10-18T23:40:11.380Z,99595.72
2022-10-18T23:42:58.154Z,99593.34
2022-10-18T23:45:47.861Z,99600.13
2022-10-18T23:48:34.803Z,99596.41
2022-10-18T23:51:21.550Z,99599.25
2022-10-18T23:54:08.349Z,99601.31
2022-10-18T23:56:55.132Z,99602.22
2022-10-18T23:59:41.895Z,99597.97
